sensor_id;sensor_type;location;lat;lon;timestamp;P1;durP1;ratioP1;P2;durP2;ratioP2
12332;SDS011;6232;48.094;11.288;2023-08-06T00:01:41;9.87;;;7.20;;
12332;SDS011;6232;48.094;11.288;2023-08-06T00:04:38;11.03;;;6.83;;
12332;SDS011;6232;48.094;11.288;2023-08-06T00:07:27;8.90;;;7.60;;
12332;SDS011;6232;48.094;11.288;2023-08-06T00:10:21;9.90;;;7.57;;
12332;SDS011;6232;48.094;11.288;2023-08-06T00:13:07;12.77;;;7.63;;
12332;SDS011;6232;48.094;11.288;2023-08-06T00:15:52;11.60;;;8.23;;
12332;SDS011;6232;48.094;11.288;2023-08-06T00:18:38;9.60;;;7.50;;
12332;SDS011;6232;48.094;11.288;2023-08-06T00:21:24;10.97;;;7.30;;
12332;SDS011;6232;48.094;11.288;2023-08-06T00:24:09;9.00;;;6.93;;
12332;SDS011;6232;48.094;11.288;2023-08-06T00:26:55;11.77;;;9.67;;
12332;SDS011;6232;48.094;11.288;2023-08-06T00:29:41;13.40;;;8.90;;
12332;SDS011;6232;48.094;11.288;2023-08-06T00:32:26;7.83;;;7.03;;
12332;SDS011;6232;48.094;11.288;2023-08-06T00:35:12;12.67;;;8.30;;
12332;SDS011;6232;48.094;11.288;2023-08-06T00:37:58;10.70;;;8.33;;
12332;SDS011;6232;48.094;11.288;2023-08-06T00:40:47;11.43;;;8.20;;
12332;SDS011;6232;48.094;11.288;2023-08-06T00:43:33;13.20;;;8.13;;
12332;SDS011;6232;48.094;11.288;2023-08-06T00:46:18;11.03;;;7.00;;
12332;SDS011;6232;48.094;11.288;2023-08-06T00:49:04;10.57;;;7.87;;
12332;SDS011;6232;48.094;11.288;2023-08-06T00:51:50;9.77;;;6.97;;
12332;SDS011;6232;48.094;11.288;2023-08-06T00:54:36;11.60;;;7.87;;
12332;SDS011;6232;48.094;11.288;2023-08-06T00:57:24;11.37;;;7.43;;
12332;SDS011;6232;48.094;11.288;2023-08-06T01:00:13;13.50;;;8.40;;
12332;SDS011;6232;48.094;11.288;2023-08-06T01:03:02;12.80;;;7.80;;
12332;SDS011;6232;48.094;11.288;2023-08-06T01:05:57;11.00;;;7.70;;
12332;SDS011;6232;48.094;11.288;2023-08-06T01:14:28;10.17;;;7.33;;
12332;SDS011;6232;48.094;11.288;2023-08-06T01:17:15;10.60;;;7.90;;
12332;SDS011;6232;48.094;11.288;2023-08-06T01:20:02;21.20;;;7.27;;
12332;SDS011;6232;48.094;11.288;2023-08-06T01:22:47;9.70;;;7.97;;
12332;SDS011;6232;48.094;11.288;2023-08-06T01:25:33;8.53;;;6.73;;
12332;SDS011;6232;48.094;11.288;2023-08-06T01:28:26;11.67;;;8.00;;
12332;SDS011;6232;48.094;11.288;2023-08-06T01:31:15;9.97;;;7.03;;
12332;SDS011;6232;48.094;11.288;2023-08-06T01:34:15;11.30;;;7.90;;
12332;SDS011;6232;48.094;11.288;2023-08-06T01:37:05;7.73;;;6.80;;
12332;SDS011;6232;48.094;11.288;2023-08-06T01:39:54;9.10;;;6.00;;
12332;SDS011;6232;48.094;11.288;2023-08-06T01:42:40;11.33;;;7.40;;
12332;SDS011;6232;48.094;11.288;2023-08-06T01:45:29;8.50;;;6.37;;
12332;SDS011;6232;48.094;11.288;2023-08-06T01:48:14;5.97;;;5.23;;
12332;SDS011;6232;48.094;11.288;2023-08-06T01:51:00;8.57;;;6.33;;
12332;SDS011;6232;48.094;11.288;2023-08-06T01:53:46;8.70;;;6.10;;
12332;SDS011;6232;48.094;11.288;2023-08-06T01:56:34;8.20;;;5.90;;
12332;SDS011;6232;48.094;11.288;2023-08-06T01:59:26;8.30;;;6.67;;
12332;SDS011;6232;48.094;11.288;2023-08-06T02:02:20;6.50;;;5.47;;
12332;SDS011;6232;48.094;11.288;2023-08-06T02:05:18;6.00;;;5.20;;
12332;SDS011;6232;48.094;11.288;2023-08-06T02:08:37;8.23;;;5.70;;
12332;SDS011;6232;48.094;11.288;2023-08-06T02:11:28;7.47;;;5.47;;
12332;SDS011;6232;48.094;11.288;2023-08-06T02:14:19;5.90;;;5.07;;
12332;SDS011;6232;48.094;11.288;2023-08-06T02:17:05;7.43;;;6.37;;
12332;SDS011;6232;48.094;11.288;2023-08-06T02:19:53;10.50;;;5.43;;
12332;SDS011;6232;48.094;11.288;2023-08-06T02:22:39;7.80;;;5.63;;
12332;SDS011;6232;48.094;11.288;2023-08-06T02:25:24;7.90;;;4.77;;
12332;SDS011;6232;48.094;11.288;2023-08-06T02:28:13;8.70;;;5.50;;
12332;SDS011;6232;48.094;11.288;2023-08-06T02:30:59;5.83;;;5.23;;
12332;SDS011;6232;48.094;11.288;2023-08-06T02:33:45;9.80;;;6.37;;
12332;SDS011;6232;48.094;11.288;2023-08-06T02:36:30;8.27;;;5.87;;
12332;SDS011;6232;48.094;11.288;2023-08-06T02:39:16;7.37;;;6.20;;
12332;SDS011;6232;48.094;11.288;2023-08-06T02:42:03;5.57;;;4.73;;
12332;SDS011;6232;48.094;11.288;2023-08-06T02:44:52;9.43;;;5.67;;
12332;SDS011;6232;48.094;11.288;2023-08-06T02:47:40;12.97;;;5.40;;
12332;SDS011;6232;48.094;11.288;2023-08-06T02:50:35;6.93;;;5.10;;
12332;SDS011;6232;48.094;11.288;2023-08-06T02:53:22;6.33;;;5.43;;
12332;SDS011;6232;48.094;11.288;2023-08-06T02:56:08;6.73;;;5.43;;
12332;SDS011;6232;48.094;11.288;2023-08-06T02:58:54;10.40;;;5.37;;
12332;SDS011;6232;48.094;11.288;2023-08-06T03:01:45;5.73;;;4.77;;
12332;SDS011;6232;48.094;11.288;2023-08-06T03:04:31;5.87;;;4.97;;
12332;SDS011;6232;48.094;11.288;2023-08-06T03:07:16;7.57;;;6.00;;
12332;SDS011;6232;48.094;11.288;2023-08-06T03:10:02;6.13;;;5.13;;
12332;SDS011;6232;48.094;11.288;2023-08-06T03:12:48;5.40;;;4.40;;
12332;SDS011;6232;48.094;11.288;2023-08-06T03:15:33;6.67;;;5.00;;
12332;SDS011;6232;48.094;11.288;2023-08-06T03:18:20;8.17;;;5.00;;
12332;SDS011;6232;48.094;11.288;2023-08-06T03:21:06;6.20;;;4.53;;
12332;SDS011;6232;48.094;11.288;2023-08-06T03:23:52;5.33;;;4.80;;
12332;SDS011;6232;48.094;11.288;2023-08-06T03:26:37;7.50;;;5.43;;
12332;SDS011;6232;48.094;11.288;2023-08-06T03:29:23;9.50;;;5.90;;
12332;SDS011;6232;48.094;11.288;2023-08-06T03:32:08;5.73;;;5.03;;
12332;SDS011;6232;48.094;11.288;2023-08-06T03:34:54;6.03;;;5.00;;
12332;SDS011;6232;48.094;11.288;2023-08-06T03:37:40;5.70;;;5.10;;
12332;SDS011;6232;48.094;11.288;2023-08-06T03:40:26;5.27;;;4.40;;
12332;SDS011;6232;48.094;11.288;2023-08-06T03:43:11;7.80;;;5.60;;
12332;SDS011;6232;48.094;11.288;2023-08-06T03:45:57;5.90;;;5.30;;
12332;SDS011;6232;48.094;11.288;2023-08-06T03:48:45;5.83;;;5.10;;
12332;SDS011;6232;48.094;11.288;2023-08-06T03:51:31;8.70;;;4.87;;
12332;SDS011;6232;48.094;11.288;2023-08-06T03:54:16;5.80;;;4.70;;
12332;SDS011;6232;48.094;11.288;2023-08-06T03:57:02;5.97;;;4.93;;
12332;SDS011;6232;48.094;11.288;2023-08-06T03:59:48;6.83;;;5.10;;
12332;SDS011;6232;48.094;11.288;2023-08-06T04:02:33;6.40;;;4.90;;
12332;SDS011;6232;48.094;11.288;2023-08-06T04:05:19;8.10;;;4.33;;
12332;SDS011;6232;48.094;11.288;2023-08-06T04:08:04;7.07;;;4.90;;
12332;SDS011;6232;48.094;11.288;2023-08-06T04:10:53;6.93;;;4.40;;
12332;SDS011;6232;48.094;11.288;2023-08-06T04:13:41;7.13;;;5.07;;
12332;SDS011;6232;48.094;11.288;2023-08-06T04:16:27;6.00;;;4.93;;
12332;SDS011;6232;48.094;11.288;2023-08-06T04:19:13;7.50;;;4.93;;
12332;SDS011;6232;48.094;11.288;2023-08-06T04:21:59;5.57;;;5.00;;
12332;SDS011;6232;48.094;11.288;2023-08-06T04:24:44;5.40;;;4.90;;
12332;SDS011;6232;48.094;11.288;2023-08-06T04:27:30;6.00;;;4.77;;
12332;SDS011;6232;48.094;11.288;2023-08-06T04:30:15;4.97;;;4.30;;
12332;SDS011;6232;48.094;11.288;2023-08-06T04:33:01;4.30;;;3.90;;
12332;SDS011;6232;48.094;11.288;2023-08-06T04:35:46;5.30;;;4.50;;
12332;SDS011;6232;48.094;11.288;2023-08-06T04:38:32;11.53;;;4.97;;
12332;SDS011;6232;48.094;11.288;2023-08-06T04:41:18;5.10;;;4.13;;
12332;SDS011;6232;48.094;11.288;2023-08-06T04:44:03;4.10;;;3.70;;
12332;SDS011;6232;48.094;11.288;2023-08-06T04:46:49;7.00;;;4.70;;
12332;SDS011;6232;48.094;11.288;2023-08-06T04:49:35;9.77;;;4.47;;
12332;SDS011;6232;48.094;11.288;2023-08-06T04:52:21;6.13;;;5.53;;
12332;SDS011;6232;48.094;11.288;2023-08-06T04:55:06;6.40;;;4.23;;
12332;SDS011;6232;48.094;11.288;2023-08-06T04:57:52;6.50;;;3.87;;
12332;SDS011;6232;48.094;11.288;2023-08-06T05:00:38;7.40;;;5.00;;
12332;SDS011;6232;48.094;11.288;2023-08-06T05:03:23;6.40;;;5.00;;
12332;SDS011;6232;48.094;11.288;2023-08-06T05:06:09;9.03;;;4.73;;
12332;SDS011;6232;48.094;11.288;2023-08-06T05:08:54;10.20;;;5.00;;
12332;SDS011;6232;48.094;11.288;2023-08-06T05:11:40;5.70;;;4.90;;
12332;SDS011;6232;48.094;11.288;2023-08-06T05:14:26;4.97;;;4.47;;
12332;SDS011;6232;48.094;11.288;2023-08-06T05:17:11;4.43;;;4.03;;
12332;SDS011;6232;48.094;11.288;2023-08-06T05:19:57;6.17;;;4.40;;
12332;SDS011;6232;48.094;11.288;2023-08-06T05:22:43;4.37;;;3.97;;
12332;SDS011;6232;48.094;11.288;2023-08-06T05:25:28;7.07;;;3.63;;
12332;SDS011;6232;48.094;11.288;2023-08-06T05:28:14;5.30;;;4.23;;
12332;SDS011;6232;48.094;11.288;2023-08-06T05:31:03;9.97;;;4.67;;
12332;SDS011;6232;48.094;11.288;2023-08-06T05:33:52;3.73;;;3.37;;
12332;SDS011;6232;48.094;11.288;2023-08-06T05:36:37;4.27;;;3.87;;
12332;SDS011;6232;48.094;11.288;2023-08-06T05:39:23;8.00;;;3.67;;
12332;SDS011;6232;48.094;11.288;2023-08-06T05:42:09;3.83;;;2.93;;
12332;SDS011;6232;48.094;11.288;2023-08-06T05:44:54;4.03;;;3.63;;
12332;SDS011;6232;48.094;11.288;2023-08-06T05:47:40;4.17;;;2.90;;
12332;SDS011;6232;48.094;11.288;2023-08-06T05:50:25;3.67;;;2.47;;
12332;SDS011;6232;48.094;11.288;2023-08-06T05:53:11;2.83;;;2.60;;
12332;SDS011;6232;48.094;11.288;2023-08-06T05:55:57;3.30;;;2.97;;
12332;SDS011;6232;48.094;11.288;2023-08-06T05:58:42;3.93;;;3.00;;
12332;SDS011;6232;48.094;11.288;2023-08-06T06:01:28;2.40;;;2.23;;
12332;SDS011;6232;48.094;11.288;2023-08-06T06:04:13;9.60;;;2.70;;
12332;SDS011;6232;48.094;11.288;2023-08-06T06:06:59;6.27;;;2.23;;
12332;SDS011;6232;48.094;11.288;2023-08-06T06:09:45;2.30;;;2.10;;
12332;SDS011;6232;48.094;11.288;2023-08-06T06:12:30;2.40;;;2.20;;
12332;SDS011;6232;48.094;11.288;2023-08-06T06:15:16;3.00;;;2.73;;
12332;SDS011;6232;48.094;11.288;2023-08-06T06:18:02;3.40;;;2.03;;
12332;SDS011;6232;48.094;11.288;2023-08-06T06:20:48;2.83;;;2.40;;
12332;SDS011;6232;48.094;11.288;2023-08-06T06:23:33;2.90;;;2.60;;
12332;SDS011;6232;48.094;11.288;2023-08-06T06:26:19;2.80;;;2.60;;
12332;SDS011;6232;48.094;11.288;2023-08-06T06:29:04;3.00;;;2.50;;
12332;SDS011;6232;48.094;11.288;2023-08-06T06:31:50;2.83;;;2.10;;
12332;SDS011;6232;48.094;11.288;2023-08-06T06:34:36;2.53;;;1.93;;
12332;SDS011;6232;48.094;11.288;2023-08-06T06:37:21;3.20;;;1.80;;
12332;SDS011;6232;48.094;11.288;2023-08-06T06:40:07;3.60;;;1.80;;
12332;SDS011;6232;48.094;11.288;2023-08-06T06:42:52;2.27;;;2.00;;
12332;SDS011;6232;48.094;11.288;2023-08-06T06:45:38;2.50;;;1.90;;
12332;SDS011;6232;48.094;11.288;2023-08-06T06:48:25;2.50;;;1.93;;
12332;SDS011;6232;48.094;11.288;2023-08-06T06:51:10;2.73;;;1.77;;
12332;SDS011;6232;48.094;11.288;2023-08-06T06:53:56;1.90;;;1.53;;
12332;SDS011;6232;48.094;11.288;2023-08-06T06:56:41;1.73;;;1.50;;
12332;SDS011;6232;48.094;11.288;2023-08-06T06:59:27;4.10;;;1.77;;
12332;SDS011;6232;48.094;11.288;2023-08-06T07:02:12;2.97;;;1.60;;
12332;SDS011;6232;48.094;11.288;2023-08-06T07:04:58;2.17;;;1.70;;
12332;SDS011;6232;48.094;11.288;2023-08-06T07:07:44;1.50;;;1.40;;
12332;SDS011;6232;48.094;11.288;2023-08-06T07:10:29;1.93;;;1.73;;
12332;SDS011;6232;48.094;11.288;2023-08-06T07:13:15;2.50;;;1.87;;
12332;SDS011;6232;48.094;11.288;2023-08-06T07:16:01;1.97;;;1.70;;
12332;SDS011;6232;48.094;11.288;2023-08-06T07:18:47;2.17;;;1.53;;
12332;SDS011;6232;48.094;11.288;2023-08-06T07:21:33;1.63;;;1.50;;
12332;SDS011;6232;48.094;11.288;2023-08-06T07:24:18;3.10;;;2.00;;
12332;SDS011;6232;48.094;11.288;2023-08-06T07:27:04;1.90;;;1.80;;
12332;SDS011;6232;48.094;11.288;2023-08-06T07:29:50;1.40;;;1.30;;
12332;SDS011;6232;48.094;11.288;2023-08-06T07:32:39;2.40;;;1.30;;
12332;SDS011;6232;48.094;11.288;2023-08-06T07:35:24;3.03;;;2.20;;
12332;SDS011;6232;48.094;11.288;2023-08-06T07:38:10;3.20;;;1.90;;
12332;SDS011;6232;48.094;11.288;2023-08-06T07:40:56;5.60;;;3.10;;
12332;SDS011;6232;48.094;11.288;2023-08-06T07:43:41;4.60;;;1.60;;
12332;SDS011;6232;48.094;11.288;2023-08-06T07:46:28;1.70;;;1.60;;
12332;SDS011;6232;48.094;11.288;2023-08-06T07:49:13;2.20;;;1.60;;
12332;SDS011;6232;48.094;11.288;2023-08-06T07:52:04;2.50;;;1.47;;
12332;SDS011;6232;48.094;11.288;2023-08-06T07:54:50;2.23;;;1.10;;
12332;SDS011;6232;48.094;11.288;2023-08-06T07:57:35;1.20;;;1.10;;
12332;SDS011;6232;48.094;11.288;2023-08-06T08:00:26;1.20;;;1.10;;
12332;SDS011;6232;48.094;11.288;2023-08-06T08:03:12;2.10;;;1.50;;
12332;SDS011;6232;48.094;11.288;2023-08-06T08:05:58;1.33;;;1.23;;
12332;SDS011;6232;48.094;11.288;2023-08-06T08:08:44;2.60;;;1.17;;
12332;SDS011;6232;48.094;11.288;2023-08-06T08:11:33;1.20;;;1.00;;
12332;SDS011;6232;48.094;11.288;2023-08-06T08:17:33;2.77;;;1.00;;
12332;SDS011;6232;48.094;11.288;2023-08-06T08:20:20;2.83;;;1.53;;
12332;SDS011;6232;48.094;11.288;2023-08-06T08:23:09;1.37;;;1.00;;
12332;SDS011;6232;48.094;11.288;2023-08-06T08:25:54;1.77;;;1.27;;
12332;SDS011;6232;48.094;11.288;2023-08-06T08:28:40;1.67;;;1.00;;
12332;SDS011;6232;48.094;11.288;2023-08-06T08:31:26;2.60;;;0.93;;
12332;SDS011;6232;48.094;11.288;2023-08-06T08:34:13;4.90;;;1.00;;
12332;SDS011;6232;48.094;11.288;2023-08-06T08:36:59;3.33;;;1.20;;
12332;SDS011;6232;48.094;11.288;2023-08-06T08:39:47;2.60;;;1.10;;
12332;SDS011;6232;48.094;11.288;2023-08-06T08:42:54;1.47;;;1.03;;
12332;SDS011;6232;48.094;11.288;2023-08-06T08:45:40;1.13;;;0.80;;
12332;SDS011;6232;48.094;11.288;2023-08-06T08:48:27;1.00;;;1.00;;
12332;SDS011;6232;48.094;11.288;2023-08-06T08:51:13;1.63;;;0.90;;
12332;SDS011;6232;48.094;11.288;2023-08-06T08:54:08;1.07;;;0.97;;
12332;SDS011;6232;48.094;11.288;2023-08-06T08:56:54;0.80;;;0.80;;
12332;SDS011;6232;48.094;11.288;2023-08-06T08:59:40;1.00;;;0.90;;
12332;SDS011;6232;48.094;11.288;2023-08-06T09:02:28;1.20;;;1.10;;
12332;SDS011;6232;48.094;11.288;2023-08-06T09:05:15;1.83;;;1.10;;
12332;SDS011;6232;48.094;11.288;2023-08-06T09:08:04;1.13;;;1.03;;
12332;SDS011;6232;48.094;11.288;2023-08-06T09:10:50;0.90;;;0.90;;
12332;SDS011;6232;48.094;11.288;2023-08-06T09:13:37;1.13;;;1.00;;
12332;SDS011;6232;48.094;11.288;2023-08-06T09:16:23;1.47;;;1.00;;
12332;SDS011;6232;48.094;11.288;2023-08-06T09:19:10;0.90;;;0.90;;
12332;SDS011;6232;48.094;11.288;2023-08-06T09:21:59;0.90;;;0.90;;
12332;SDS011;6232;48.094;11.288;2023-08-06T09:24:47;1.37;;;0.90;;
12332;SDS011;6232;48.094;11.288;2023-08-06T09:27:33;2.50;;;0.90;;
12332;SDS011;6232;48.094;11.288;2023-08-06T09:30:37;1.83;;;0.80;;
12332;SDS011;6232;48.094;11.288;2023-08-06T09:33:22;0.97;;;0.97;;
12332;SDS011;6232;48.094;11.288;2023-08-06T09:36:09;0.90;;;0.90;;
12332;SDS011;6232;48.094;11.288;2023-08-06T09:38:55;1.53;;;0.80;;
12332;SDS011;6232;48.094;11.288;2023-08-06T09:41:41;0.80;;;0.80;;
12332;SDS011;6232;48.094;11.288;2023-08-06T09:44:27;1.00;;;0.90;;
12332;SDS011;6232;48.094;11.288;2023-08-06T09:47:13;1.57;;;0.90;;
12332;SDS011;6232;48.094;11.288;2023-08-06T09:50:01;1.00;;;0.77;;
12332;SDS011;6232;48.094;11.288;2023-08-06T09:52:47;0.90;;;0.80;;
12332;SDS011;6232;48.094;11.288;2023-08-06T09:55:33;0.70;;;0.70;;
12332;SDS011;6232;48.094;11.288;2023-08-06T09:58:19;0.87;;;0.87;;
12332;SDS011;6232;48.094;11.288;2023-08-06T10:01:06;0.80;;;0.80;;
12332;SDS011;6232;48.094;11.288;2023-08-06T10:03:52;0.70;;;0.70;;
12332;SDS011;6232;48.094;11.288;2023-08-06T10:06:38;1.63;;;1.17;;
12332;SDS011;6232;48.094;11.288;2023-08-06T10:09:24;0.80;;;0.80;;
12332;SDS011;6232;48.094;11.288;2023-08-06T10:12:09;3.43;;;0.93;;
12332;SDS011;6232;48.094;11.288;2023-08-06T10:14:55;2.00;;;0.80;;
12332;SDS011;6232;48.094;11.288;2023-08-06T10:17:43;0.90;;;0.90;;
12332;SDS011;6232;48.094;11.288;2023-08-06T10:20:34;0.70;;;0.70;;
12332;SDS011;6232;48.094;11.288;2023-08-06T10:23:20;0.80;;;0.80;;
12332;SDS011;6232;48.094;11.288;2023-08-06T10:26:17;0.70;;;0.70;;
12332;SDS011;6232;48.094;11.288;2023-08-06T10:32:07;0.70;;;0.70;;
12332;SDS011;6232;48.094;11.288;2023-08-06T10:35:02;0.77;;;0.77;;
12332;SDS011;6232;48.094;11.288;2023-08-06T10:37:48;6.00;;;0.80;;
12332;SDS011;6232;48.094;11.288;2023-08-06T10:40:34;0.87;;;0.87;;
12332;SDS011;6232;48.094;11.288;2023-08-06T10:43:26;0.70;;;0.70;;
12332;SDS011;6232;48.094;11.288;2023-08-06T10:46:21;1.17;;;0.90;;
12332;SDS011;6232;48.094;11.288;2023-08-06T10:49:07;1.53;;;0.70;;
12332;SDS011;6232;48.094;11.288;2023-08-06T10:51:52;0.70;;;0.70;;
12332;SDS011;6232;48.094;11.288;2023-08-06T10:54:39;1.83;;;0.93;;
12332;SDS011;6232;48.094;11.288;2023-08-06T10:57:24;1.33;;;0.93;;
12332;SDS011;6232;48.094;11.288;2023-08-06T11:00:10;1.03;;;0.87;;
12332;SDS011;6232;48.094;11.288;2023-08-06T11:02:59;1.30;;;0.80;;
12332;SDS011;6232;48.094;11.288;2023-08-06T11:05:50;0.80;;;0.80;;
12332;SDS011;6232;48.094;11.288;2023-08-06T11:08:36;5.60;;;0.87;;
12332;SDS011;6232;48.094;11.288;2023-08-06T11:11:23;0.70;;;0.70;;
12332;SDS011;6232;48.094;11.288;2023-08-06T11:14:14;1.00;;;0.90;;
12332;SDS011;6232;48.094;11.288;2023-08-06T11:17:00;0.80;;;0.80;;
12332;SDS011;6232;48.094;11.288;2023-08-06T11:19:45;4.23;;;0.90;;
12332;SDS011;6232;48.094;11.288;2023-08-06T11:22:31;1.33;;;0.80;;
12332;SDS011;6232;48.094;11.288;2023-08-06T11:25:19;1.00;;;0.90;;
12332;SDS011;6232;48.094;11.288;2023-08-06T11:28:05;1.50;;;0.80;;
12332;SDS011;6232;48.094;11.288;2023-08-06T11:30:51;1.30;;;0.80;;
12332;SDS011;6232;48.094;11.288;2023-08-06T11:33:36;1.70;;;0.80;;
12332;SDS011;6232;48.094;11.288;2023-08-06T11:36:32;0.80;;;0.80;;
12332;SDS011;6232;48.094;11.288;2023-08-06T11:39:17;0.70;;;0.60;;
12332;SDS011;6232;48.094;11.288;2023-08-06T11:42:04;0.70;;;0.60;;
12332;SDS011;6232;48.094;11.288;2023-08-06T11:44:50;0.80;;;0.70;;
12332;SDS011;6232;48.094;11.288;2023-08-06T11:47:38;1.30;;;0.80;;
12332;SDS011;6232;48.094;11.288;2023-08-06T11:50:27;1.37;;;0.70;;
12332;SDS011;6232;48.094;11.288;2023-08-06T11:53:13;0.70;;;0.70;;
12332;SDS011;6232;48.094;11.288;2023-08-06T11:56:00;0.70;;;0.70;;
12332;SDS011;6232;48.094;11.288;2023-08-06T11:58:46;1.20;;;0.87;;
12332;SDS011;6232;48.094;11.288;2023-08-06T12:01:31;0.70;;;0.70;;
12332;SDS011;6232;48.094;11.288;2023-08-06T12:04:17;0.70;;;0.70;;
12332;SDS011;6232;48.094;11.288;2023-08-06T12:07:06;0.70;;;0.70;;
12332;SDS011;6232;48.094;11.288;2023-08-06T12:09:53;0.73;;;0.73;;
12332;SDS011;6232;48.094;11.288;2023-08-06T12:12:38;0.80;;;0.80;;
12332;SDS011;6232;48.094;11.288;2023-08-06T12:15:24;0.90;;;0.70;;
12332;SDS011;6232;48.094;11.288;2023-08-06T12:18:10;0.70;;;0.70;;
12332;SDS011;6232;48.094;11.288;2023-08-06T12:20:55;4.30;;;0.90;;
12332;SDS011;6232;48.094;11.288;2023-08-06T12:23:41;0.70;;;0.70;;
12332;SDS011;6232;48.094;11.288;2023-08-06T12:26:27;3.13;;;0.70;;
12332;SDS011;6232;48.094;11.288;2023-08-06T12:29:12;1.90;;;0.70;;
12332;SDS011;6232;48.094;11.288;2023-08-06T12:31:58;0.90;;;0.90;;
12332;SDS011;6232;48.094;11.288;2023-08-06T12:34:44;1.87;;;1.00;;
12332;SDS011;6232;48.094;11.288;2023-08-06T12:37:29;0.70;;;0.70;;
12332;SDS011;6232;48.094;11.288;2023-08-06T12:40:15;0.80;;;0.70;;
12332;SDS011;6232;48.094;11.288;2023-08-06T12:43:00;0.70;;;0.70;;
12332;SDS011;6232;48.094;11.288;2023-08-06T12:45:46;0.80;;;0.80;;
12332;SDS011;6232;48.094;11.288;2023-08-06T12:48:34;0.97;;;0.87;;
12332;SDS011;6232;48.094;11.288;2023-08-06T12:51:19;1.03;;;0.90;;
12332;SDS011;6232;48.094;11.288;2023-08-06T12:54:05;1.30;;;1.03;;
12332;SDS011;6232;48.094;11.288;2023-08-06T12:56:50;1.20;;;0.93;;
12332;SDS011;6232;48.094;11.288;2023-08-06T12:59:36;1.00;;;0.90;;
12332;SDS011;6232;48.094;11.288;2023-08-06T13:02:22;0.83;;;0.83;;
12332;SDS011;6232;48.094;11.288;2023-08-06T13:05:07;0.90;;;0.90;;
12332;SDS011;6232;48.094;11.288;2023-08-06T13:07:54;1.10;;;0.93;;
12332;SDS011;6232;48.094;11.288;2023-08-06T13:10:40;0.80;;;0.80;;
12332;SDS011;6232;48.094;11.288;2023-08-06T13:13:26;0.90;;;0.90;;
12332;SDS011;6232;48.094;11.288;2023-08-06T13:16:12;0.80;;;0.80;;
12332;SDS011;6232;48.094;11.288;2023-08-06T13:18:57;0.90;;;0.90;;
12332;SDS011;6232;48.094;11.288;2023-08-06T13:24:32;0.90;;;0.90;;
12332;SDS011;6232;48.094;11.288;2023-08-06T13:27:18;0.90;;;0.90;;
12332;SDS011;6232;48.094;11.288;2023-08-06T13:30:03;1.10;;;0.90;;
12332;SDS011;6232;48.094;11.288;2023-08-06T13:32:49;1.00;;;1.00;;
12332;SDS011;6232;48.094;11.288;2023-08-06T13:35:35;1.13;;;1.03;;
12332;SDS011;6232;48.094;11.288;2023-08-06T13:38:20;1.00;;;1.00;;
12332;SDS011;6232;48.094;11.288;2023-08-06T13:41:06;1.77;;;1.00;;
12332;SDS011;6232;48.094;11.288;2023-08-06T13:43:51;1.10;;;0.97;;
12332;SDS011;6232;48.094;11.288;2023-08-06T13:46:37;0.90;;;0.90;;
12332;SDS011;6232;48.094;11.288;2023-08-06T13:49:22;1.30;;;1.20;;
12332;SDS011;6232;48.094;11.288;2023-08-06T13:52:08;1.03;;;1.03;;
12332;SDS011;6232;48.094;11.288;2023-08-06T13:54:53;1.20;;;1.10;;
12332;SDS011;6232;48.094;11.288;2023-08-06T13:57:39;1.33;;;1.10;;
12332;SDS011;6232;48.094;11.288;2023-08-06T14:00:25;1.07;;;1.00;;
12332;SDS011;6232;48.094;11.288;2023-08-06T14:03:10;1.43;;;1.10;;
12332;SDS011;6232;48.094;11.288;2023-08-06T14:05:56;1.10;;;1.00;;
12332;SDS011;6232;48.094;11.288;2023-08-06T14:08:41;1.77;;;1.20;;
12332;SDS011;6232;48.094;11.288;2023-08-06T14:11:27;1.30;;;1.13;;
12332;SDS011;6232;48.094;11.288;2023-08-06T14:14:12;1.43;;;1.10;;
12332;SDS011;6232;48.094;11.288;2023-08-06T14:17:08;1.17;;;1.17;;
12332;SDS011;6232;48.094;11.288;2023-08-06T14:19:53;1.30;;;1.20;;
12332;SDS011;6232;48.094;11.288;2023-08-06T14:22:39;1.00;;;1.00;;
12332;SDS011;6232;48.094;11.288;2023-08-06T14:25:25;1.20;;;1.20;;
12332;SDS011;6232;48.094;11.288;2023-08-06T14:28:13;1.00;;;1.00;;
12332;SDS011;6232;48.094;11.288;2023-08-06T14:30:59;1.10;;;1.00;;
12332;SDS011;6232;48.094;11.288;2023-08-06T14:33:44;1.10;;;1.10;;
12332;SDS011;6232;48.094;11.288;2023-08-06T14:36:30;1.00;;;1.00;;
12332;SDS011;6232;48.094;11.288;2023-08-06T14:39:15;1.17;;;1.07;;
12332;SDS011;6232;48.094;11.288;2023-08-06T14:42:02;1.07;;;1.07;;
12332;SDS011;6232;48.094;11.288;2023-08-06T14:44:50;1.30;;;1.20;;
12332;SDS011;6232;48.094;11.288;2023-08-06T14:47:36;2.17;;;1.10;;
12332;SDS011;6232;48.094;11.288;2023-08-06T14:50:22;1.20;;;1.10;;
12332;SDS011;6232;48.094;11.288;2023-08-06T14:53:08;1.27;;;1.17;;
12332;SDS011;6232;48.094;11.288;2023-08-06T14:59:21;1.40;;;1.30;;
12332;SDS011;6232;48.094;11.288;2023-08-06T15:02:12;1.30;;;1.20;;
12332;SDS011;6232;48.094;11.288;2023-08-06T15:04:57;2.00;;;1.30;;
12332;SDS011;6232;48.094;11.288;2023-08-06T15:07:43;1.33;;;1.07;;
12332;SDS011;6232;48.094;11.288;2023-08-06T15:10:34;1.00;;;0.90;;
12332;SDS011;6232;48.094;11.288;2023-08-06T15:13:20;3.43;;;1.27;;
12332;SDS011;6232;48.094;11.288;2023-08-06T15:16:06;0.90;;;0.90;;
12332;SDS011;6232;48.094;11.288;2023-08-06T15:18:54;1.83;;;1.30;;
12332;SDS011;6232;48.094;11.288;2023-08-06T15:21:40;1.20;;;1.10;;
12332;SDS011;6232;48.094;11.288;2023-08-06T15:24:27;1.07;;;1.07;;
12332;SDS011;6232;48.094;11.288;2023-08-06T15:27:18;1.20;;;1.10;;
12332;SDS011;6232;48.094;11.288;2023-08-06T15:30:04;2.00;;;1.17;;
12332;SDS011;6232;48.094;11.288;2023-08-06T15:32:50;2.03;;;1.37;;
12332;SDS011;6232;48.094;11.288;2023-08-06T15:35:35;1.47;;;1.30;;
12332;SDS011;6232;48.094;11.288;2023-08-06T15:38:27;2.10;;;0.90;;
12332;SDS011;6232;48.094;11.288;2023-08-06T15:41:48;1.23;;;1.23;;
12332;SDS011;6232;48.094;11.288;2023-08-06T15:44:29;0.97;;;0.97;;
12332;SDS011;6232;48.094;11.288;2023-08-06T15:47:14;1.10;;;1.00;;
12332;SDS011;6232;48.094;11.288;2023-08-06T15:50:03;1.00;;;1.00;;
12332;SDS011;6232;48.094;11.288;2023-08-06T15:52:31;1.30;;;1.20;;
12332;SDS011;6232;48.094;11.288;2023-08-06T15:54:59;1.57;;;0.97;;
12332;SDS011;6232;48.094;11.288;2023-08-06T15:57:33;0.80;;;0.80;;
12332;SDS011;6232;48.094;11.288;2023-08-06T15:59:59;1.00;;;0.90;;
12332;SDS011;6232;48.094;11.288;2023-08-06T16:02:24;0.97;;;0.97;;
12332;SDS011;6232;48.094;11.288;2023-08-06T16:04:52;1.93;;;1.17;;
12332;SDS011;6232;48.094;11.288;2023-08-06T16:07:21;1.03;;;1.03;;
12332;SDS011;6232;48.094;11.288;2023-08-06T16:09:52;0.90;;;0.90;;
12332;SDS011;6232;48.094;11.288;2023-08-06T16:12:21;1.10;;;1.00;;
12332;SDS011;6232;48.094;11.288;2023-08-06T16:14:46;2.40;;;1.00;;
12332;SDS011;6232;48.094;11.288;2023-08-06T16:17:15;1.10;;;1.10;;
12332;SDS011;6232;48.094;11.288;2023-08-06T16:19:40;0.90;;;0.90;;
12332;SDS011;6232;48.094;11.288;2023-08-06T16:22:08;2.77;;;1.13;;
12332;SDS011;6232;48.094;11.288;2023-08-06T16:24:34;1.00;;;1.00;;
12332;SDS011;6232;48.094;11.288;2023-08-06T16:26:59;1.20;;;1.10;;
12332;SDS011;6232;48.094;11.288;2023-08-06T16:29:25;0.90;;;0.90;;
12332;SDS011;6232;48.094;11.288;2023-08-06T16:31:53;1.10;;;1.10;;
12332;SDS011;6232;48.094;11.288;2023-08-06T16:34:39;1.10;;;1.10;;
12332;SDS011;6232;48.094;11.288;2023-08-06T16:37:25;1.10;;;1.10;;
12332;SDS011;6232;48.094;11.288;2023-08-06T16:40:21;1.43;;;1.33;;
12332;SDS011;6232;48.094;11.288;2023-08-06T16:43:07;1.70;;;1.60;;
12332;SDS011;6232;48.094;11.288;2023-08-06T16:45:52;1.10;;;1.10;;
12332;SDS011;6232;48.094;11.288;2023-08-06T16:48:39;1.00;;;1.00;;
12332;SDS011;6232;48.094;11.288;2023-08-06T16:51:25;1.40;;;1.30;;
12332;SDS011;6232;48.094;11.288;2023-08-06T16:54:10;1.20;;;1.10;;
12332;SDS011;6232;48.094;11.288;2023-08-06T16:56:56;1.93;;;1.20;;